createdAt,value
2023-03-07T00:01:44.426Z,1.44
2023-03-07T00:04:10.962Z,1.48
2023-03-07T00:06:37.522Z,1.44
2023-03-07T00:09:04.029Z,1.41
2023-03-07T00:11:30.565Z,1.37
2023-03-07T00:13:57.082Z,1.42
2023-03-07T00:16:24.734Z,1.45
2023-03-07T00:18:51.309Z,1.39
2023-03-07T00:21:21.059Z,1.41
2023-03-07T00:23:48.217Z,1.42
2023-03-07T00:26:20.829Z,1.30
2023-03-07T00:28:49.365Z,1.43
2023-03-07T00:31:16.778Z,1.34
2023-03-07T00:33:43.416Z,1.39
2023-03-07T00:36:16.342Z,1.29
2023-03-07T00:38:43.022Z,1.31
2023-03-07T00:41:12.368Z,1.35
2023-03-07T00:43:39.495Z,1.29
2023-03-07T00:46:06.194Z,1.15
2023-03-07T00:48:38.533Z,1.25
2023-03-07T00:51:07.537Z,1.13
2023-03-07T00:53:35.073Z,1.11
2023-03-07T00:56:07.607Z,1.05
2023-03-07T00:58:36.294Z,0.94
2023-03-07T01:01:05.908Z,0.90
2023-03-07T01:03:34.283Z,0.96
2023-03-07T01:06:06.231Z,0.96
2023-03-07T01:08:33.421Z,1.02
2023-03-07T01:11:01.994Z,0.89
2023-03-07T01:13:29.573Z,0.94
2023-03-07T01:15:56.646Z,0.89
2023-03-07T01:18:23.192Z,0.90
2023-03-07T01:20:49.696Z,0.86
2023-03-07T01:23:16.392Z,0.97
2023-03-07T01:25:43.456Z,0.92
2023-03-07T01:28:13.765Z,0.79
2023-03-07T01:30:41.432Z,0.84
2023-03-07T01:33:09.962Z,0.87
2023-03-07T01:35:40.108Z,0.98
2023-03-07T01:38:06.779Z,0.95
2023-03-07T01:40:38.218Z,1.03
2023-03-07T01:43:24.543Z,0.89
2023-03-07T01:46:30.828Z,0.91
2023-03-07T01:49:03.789Z,0.88
2023-03-07T01:51:32.649Z,0.84
2023-03-07T01:54:04.391Z,0.75
2023-03-07T01:56:31.411Z,0.96
2023-03-07T01:58:58.320Z,0.90
2023-03-07T02:01:27.383Z,0.80
2023-03-07T02:04:09.594Z,0.83
2023-03-07T02:06:38.785Z,0.83
2023-03-07T02:09:13.884Z,0.78
2023-03-07T02:11:43.537Z,0.75
2023-03-07T02:14:10.788Z,0.79
2023-03-07T02:16:38.858Z,0.82
2023-03-07T02:19:29.595Z,0.75
2023-03-07T02:22:11.121Z,0.91
2023-03-07T02:24:45.630Z,0.87
2023-03-07T02:27:13.411Z,0.88
2023-03-07T02:29:40.638Z,0.97
2023-03-07T02:32:09.009Z,1.05
2023-03-07T02:34:35.741Z,0.87
2023-03-07T02:37:12.461Z,0.87
2023-03-07T02:39:42.908Z,0.85
2023-03-07T02:42:22.737Z,0.89
2023-03-07T02:45:00.461Z,0.93
2023-03-07T02:47:29.884Z,1.01
2023-03-07T02:49:57.871Z,0.97
2023-03-07T02:52:24.592Z,1.07
2023-03-07T02:54:51.103Z,1.12
2023-03-07T02:57:18.260Z,1.17
2023-03-07T02:59:44.775Z,1.16
2023-03-07T03:02:11.401Z,1.17
2023-03-07T03:04:37.919Z,1.10
2023-03-07T03:07:04.815Z,1.07
2023-03-07T03:09:31.509Z,1.19
2023-03-07T03:11:58.259Z,1.15
2023-03-07T03:14:27.984Z,1.08
2023-03-07T03:16:54.718Z,1.01
2023-03-07T03:19:21.585Z,1.06
2023-03-07T03:21:48.766Z,1.18
2023-03-07T03:24:16.452Z,1.15
2023-03-07T03:26:44.708Z,1.16
2023-03-07T03:29:11.915Z,1.12
2023-03-07T03:31:39.319Z,1.04
2023-03-07T03:34:06.010Z,1.16
2023-03-07T03:36:33.656Z,1.13
2023-03-07T03:39:06.942Z,1.05
2023-03-07T03:41:33.489Z,1.13
2023-03-07T03:44:00.140Z,1.06
2023-03-07T03:46:30.764Z,1.00
2023-03-07T03:48:57.867Z,1.02
2023-03-07T03:51:27.320Z,0.97
2023-03-07T03:53:58.165Z,0.99
2023-03-07T03:56:26.504Z,1.00
2023-03-07T03:58:55.286Z,1.08
2023-03-07T04:01:24.370Z,0.88
2023-03-07T04:03:52.134Z,1.06
2023-03-07T04:06:25.287Z,0.96
2023-03-07T04:08:53.106Z,0.99
2023-03-07T04:11:21.395Z,0.97
2023-03-07T04:13:48.144Z,1.07
2023-03-07T04:16:15.938Z,1.04
2023-03-07T04:18:42.894Z,1.09
2023-03-07T04:21:13.016Z,1.14
2023-03-07T04:23:40.592Z,1.09
2023-03-07T04:26:08.963Z,1.06
2023-03-07T04:28:44.823Z,1.18
2023-03-07T04:31:21.645Z,1.19
2023-03-07T04:33:50.132Z,1.19
2023-03-07T04:36:18.077Z,1.07
2023-03-07T04:38:47.557Z,1.24
2023-03-07T04:41:16.340Z,1.18
2023-03-07T04:43:43.414Z,1.20
2023-03-07T04:46:12.035Z,1.26
2023-03-07T04:48:38.966Z,1.36
2023-03-07T04:51:06.273Z,1.36
2023-03-07T04:53:33.144Z,1.36
2023-03-07T04:56:01.419Z,1.35
2023-03-07T04:58:30.158Z,1.32
2023-03-07T05:00:57.619Z,1.38
2023-03-07T05:03:26.459Z,1.32
2023-03-07T05:05:53.971Z,1.38
2023-03-07T05:08:22.381Z,1.26
2023-03-07T05:10:49.605Z,1.27
2023-03-07T05:13:16.178Z,1.41
2023-03-07T05:15:43.167Z,1.45
2023-03-07T05:18:09.804Z,1.24
2023-03-07T05:20:36.294Z,1.26
2023-03-07T05:23:02.800Z,1.34
2023-03-07T05:25:29.602Z,1.31
2023-03-07T05:27:56.108Z,1.21
2023-03-07T05:30:22.624Z,1.36
2023-03-07T05:32:49.662Z,1.27
2023-03-07T05:35:16.260Z,1.14
2023-03-07T05:37:44.215Z,1.10
2023-03-07T05:40:11.511Z,1.12
2023-03-07T05:42:41.583Z,0.90
2023-03-07T05:45:08.691Z,0.98
2023-03-07T05:47:35.706Z,1.01
2023-03-07T05:50:02.324Z,1.03
2023-03-07T05:52:29.074Z,0.96
2023-03-07T05:54:55.873Z,0.91
2023-03-07T05:57:23.848Z,1.01
2023-03-07T05:59:50.677Z,0.98
2023-03-07T06:02:17.467Z,0.90
2023-03-07T06:04:44.162Z,0.89
2023-03-07T06:07:10.606Z,0.95
2023-03-07T06:09:37.176Z,0.93
2023-03-07T06:12:04.200Z,0.94
2023-03-07T06:14:32.200Z,0.79
2023-03-07T06:16:58.777Z,0.89
2023-03-07T06:19:25.676Z,0.81
2023-03-07T06:21:52.389Z,0.88
2023-03-07T06:24:19.607Z,0.88
2023-03-07T06:26:46.720Z,0.85
2023-03-07T06:29:14.029Z,0.94
2023-03-07T06:31:40.709Z,1.10
2023-03-07T06:34:08.562Z,1.06
2023-03-07T06:36:35.350Z,1.24
2023-03-07T06:39:02.174Z,1.27
2023-03-07T06:41:28.929Z,1.35
2023-03-07T06:43:58.903Z,1.33
2023-03-07T06:46:28.112Z,1.36
2023-03-07T06:48:55.808Z,1.33
2023-03-07T06:51:23.487Z,1.26
2023-03-07T06:53:50.676Z,1.37
2023-03-07T06:56:17.564Z,1.32
2023-03-07T06:58:44.276Z,1.34
2023-03-07T07:01:20.941Z,1.49
2023-03-07T07:03:50.179Z,1.37
2023-03-07T07:06:17.433Z,1.28
2023-03-07T07:08:43.969Z,1.49
2023-03-07T07:11:11.153Z,1.52
2023-03-07T07:13:38.301Z,1.55
2023-03-07T07:16:07.778Z,1.42
2023-03-07T07:18:36.485Z,1.58
2023-03-07T07:21:05.997Z,1.58
2023-03-07T07:23:32.995Z,1.69
2023-03-07T07:26:00.440Z,1.72
2023-03-07T07:28:27.299Z,1.86
2023-03-07T07:30:54.053Z,1.88
2023-03-07T07:33:20.734Z,1.89
2023-03-07T07:35:50.305Z,2.03
2023-03-07T07:38:17.555Z,2.10
2023-03-07T07:40:45.013Z,1.91
2023-03-07T07:43:15.521Z,2.12
2023-03-07T07:45:47.186Z,2.28
2023-03-07T07:48:17.296Z,2.49
2023-03-07T07:50:46.032Z,2.62
2023-03-07T07:53:13.443Z,2.39
2023-03-07T07:55:40.616Z,2.43
2023-03-07T07:58:07.229Z,2.47
2023-03-07T08:00:33.845Z,2.71
2023-03-07T08:03:01.024Z,2.84
2023-03-07T08:05:27.553Z,3.24
2023-03-07T08:07:54.056Z,3.42
2023-03-07T08:10:20.632Z,3.19
2023-03-07T08:12:53.611Z,3.23
2023-03-07T08:15:23.997Z,3.10
2023-03-07T08:17:51.287Z,3.19
2023-03-07T08:20:18.420Z,3.18
2023-03-07T08:22:44.943Z,3.53
2023-03-07T08:25:17.862Z,3.96
2023-03-07T08:27:44.375Z,3.76
2023-03-07T08:30:11.530Z,3.57
2023-03-07T08:32:38.188Z,3.69
2023-03-07T08:35:05.448Z,3.78
2023-03-07T08:37:32.001Z,4.11
2023-03-07T08:39:58.489Z,4.57
2023-03-07T08:42:25.075Z,4.67
2023-03-07T08:44:51.567Z,4.75
2023-03-07T08:47:18.052Z,4.95
2023-03-07T08:49:44.565Z,4.30
2023-03-07T08:52:11.091Z,4.06
2023-03-07T08:54:37.644Z,4.33
2023-03-07T08:57:04.708Z,4.25
2023-03-07T08:59:31.228Z,4.36
2023-03-07T09:01:57.789Z,4.90
2023-03-07T09:04:24.830Z,5.29
2023-03-07T09:06:51.755Z,4.74
2023-03-07T09:09:18.563Z,4.86
2023-03-07T09:11:45.203Z,4.59
2023-03-07T09:14:11.848Z,4.87
2023-03-07T09:16:38.622Z,5.37
2023-03-07T09:19:05.832Z,5.62
2023-03-07T09:21:32.787Z,5.90
2023-03-07T09:23:59.448Z,6.51
2023-03-07T09:26:26.082Z,6.72
2023-03-07T09:28:52.724Z,8.01
2023-03-07T09:31:19.396Z,6.28
2023-03-07T09:33:47.049Z,6.21
2023-03-07T09:36:14.776Z,6.66
2023-03-07T09:38:41.312Z,6.41
2023-03-07T09:41:25.658Z,6.88
2023-03-07T09:44:07.682Z,6.33
2023-03-07T09:47:10.867Z,6.38
2023-03-07T09:49:45.143Z,6.41
2023-03-07T09:52:15.853Z,6.03
2023-03-07T09:54:50.079Z,5.37
2023-03-07T09:57:26.513Z,5.36
2023-03-07T10:00:00.697Z,5.08
2023-03-07T10:02:39.163Z,5.81
2023-03-07T10:05:08.346Z,6.05
2023-03-07T10:07:35.574Z,6.40
2023-03-07T10:10:06.695Z,7.77
2023-03-07T10:12:54.317Z,9.38
2023-03-07T10:15:35.966Z,10.38
2023-03-07T10:18:36.554Z,11.28
2023-03-07T10:21:28.207Z,10.65
2023-03-07T10:24:11.298Z,11.59
2023-03-07T10:27:05.438Z,12.00
2023-03-07T10:29:41.843Z,12.15
2023-03-07T10:32:35.320Z,10.95
2023-03-07T10:35:10.577Z,8.98
2023-03-07T10:37:48.262Z,8.40
2023-03-07T10:40:23.557Z,6.90
2023-03-07T10:42:50.040Z,6.94
2023-03-07T10:45:17.089Z,6.84
2023-03-07T10:47:43.663Z,7.24
2023-03-07T10:50:24.185Z,7.83
2023-03-07T10:53:40.217Z,8.11
2023-03-07T10:56:15.787Z,8.24
2023-03-07T10:59:03.865Z,7.53
2023-03-07T11:01:32.158Z,7.23
2023-03-07T11:04:07.146Z,6.65
2023-03-07T11:06:44.633Z,6.93
2023-03-07T11:09:23.294Z,6.81
2023-03-07T11:11:54.027Z,6.77
2023-03-07T11:14:22.006Z,6.58
2023-03-07T11:16:52.229Z,6.28
2023-03-07T11:19:32.630Z,6.15
2023-03-07T11:22:01.394Z,5.93
2023-03-07T11:24:31.092Z,5.67
2023-03-07T11:26:59.384Z,5.62
2023-03-07T11:29:28.528Z,5.92
2023-03-07T11:32:22.686Z,5.36
2023-03-07T11:34:59.378Z,5.46
2023-03-07T11:37:39.436Z,5.77
2023-03-07T11:40:22.567Z,5.77
2023-03-07T11:43:22.894Z,5.60
2023-03-07T11:45:56.376Z,5.36
2023-03-07T11:48:35.995Z,5.09
2023-03-07T11:51:04.721Z,5.15
2023-03-07T11:53:47.878Z,5.34
2023-03-07T11:56:40.598Z,5.39
2023-03-07T11:59:29.332Z,5.29
2023-03-07T12:02:03.118Z,5.37
2023-03-07T12:04:41.765Z,5.85
2023-03-07T12:07:33.477Z,5.84
2023-03-07T12:10:21.834Z,6.12
2023-03-07T12:13:01.308Z,6.14
2023-03-07T12:15:51.709Z,6.30
2023-03-07T12:18:32.830Z,6.15
2023-03-07T12:21:17.930Z,6.25
2023-03-07T12:23:52.812Z,5.98
2023-03-07T12:26:43.835Z,5.55
2023-03-07T12:29:19.352Z,6.17
2023-03-07T12:31:51.364Z,6.25
2023-03-07T12:34:27.932Z,6.20
2023-03-07T12:37:01.012Z,6.50
2023-03-07T12:40:02.088Z,6.30
2023-03-07T12:43:00.285Z,5.93
2023-03-07T12:45:35.963Z,6.14
2023-03-07T12:48:20.132Z,5.81
2023-03-07T12:50:54.649Z,5.97
2023-03-07T12:53:55.089Z,6.04
2023-03-07T12:57:03.672Z,5.93
2023-03-07T12:59:35.130Z,6.50
2023-03-07T13:02:06.217Z,6.66
2023-03-07T13:04:37.038Z,6.66
2023-03-07T13:07:13.130Z,6.30
2023-03-07T13:09:42.601Z,6.23
2023-03-07T13:12:24.380Z,5.84
2023-03-07T13:14:57.075Z,6.02
2023-03-07T13:17:26.548Z,5.84
2023-03-07T13:19:55.623Z,5.75
2023-03-07T13:22:22.001Z,5.81
2023-03-07T13:24:52.118Z,5.43
2023-03-07T13:27:19.711Z,5.53
2023-03-07T13:30:04.915Z,5.35
2023-03-07T13:32:55.978Z,5.22
2023-03-07T13:35:48.164Z,4.94
2023-03-07T13:38:23.508Z,4.95
2023-03-07T13:41:01.278Z,4.60
2023-03-07T13:43:28.509Z,4.61
2023-03-07T13:45:59.187Z,4.54
2023-03-07T13:48:28.629Z,4.51
2023-03-07T13:50:54.986Z,4.45
2023-03-07T13:53:33.288Z,4.32
2023-03-07T13:56:15.214Z,4.39
2023-03-07T13:59:09.655Z,4.67
2023-03-07T14:01:42.064Z,4.83
2023-03-07T14:04:17.028Z,4.80
2023-03-07T14:06:56.754Z,4.57
2023-03-07T14:09:40.280Z,4.46
2023-03-07T14:13:05.100Z,4.52
2023-03-07T14:15:57.052Z,4.18
2023-03-07T14:18:26.456Z,4.13
2023-03-07T14:21:27.356Z,4.23
2023-03-07T14:24:14.656Z,4.03
2023-03-07T14:26:55.572Z,3.89
2023-03-07T14:29:27.536Z,3.65
2023-03-07T14:31:59.320Z,3.36
2023-03-07T14:34:32.214Z,3.13
2023-03-07T14:37:06.526Z,3.21
2023-03-07T14:39:42.904Z,3.39
2023-03-07T14:42:33.690Z,3.53
2023-03-07T14:45:12.317Z,3.51
2023-03-07T14:48:11.508Z,3.86
2023-03-07T14:50:44.152Z,3.88
2023-03-07T14:53:22.814Z,3.86
2023-03-07T14:55:52.517Z,4.03
2023-03-07T14:58:22.327Z,4.10
2023-03-07T15:01:15.927Z,4.37
2023-03-07T15:03:55.116Z,4.26
2023-03-07T15:06:25.263Z,4.04
2023-03-07T15:08:55.268Z,4.26
2023-03-07T15:11:44.742Z,4.17
2023-03-07T15:14:21.647Z,3.91
2023-03-07T15:16:51.036Z,3.77
2023-03-07T15:19:31.511Z,3.74
2023-03-07T15:22:01.302Z,3.86
2023-03-07T15:24:34.112Z,3.53
2023-03-07T15:27:01.596Z,3.68
2023-03-07T15:29:33.060Z,3.60
2023-03-07T15:32:07.175Z,3.75
2023-03-07T15:34:36.819Z,3.88
2023-03-07T15:37:58.601Z,4.30
2023-03-07T15:40:36.151Z,4.30
2023-03-07T15:43:04.417Z,4.45
2023-03-07T15:45:36.673Z,4.53
2023-03-07T15:48:24.214Z,4.35
2023-03-07T15:51:00.573Z,4.52
2023-03-07T15:53:34.151Z,4.53
2023-03-07T15:56:05.037Z,4.51
2023-03-07T15:58:35.130Z,4.35
2023-03-07T16:01:19.566Z,4.47
2023-03-07T16:04:04.450Z,4.66
2023-03-07T16:06:45.549Z,4.68
2023-03-07T16:09:17.429Z,4.60
2023-03-07T16:11:46.148Z,4.57
2023-03-07T16:14:25.975Z,4.68
2023-03-07T16:16:59.449Z,4.51
2023-03-07T16:19:26.891Z,4.58
2023-03-07T16:21:53.544Z,4.60
2023-03-07T16:24:20.208Z,4.58
2023-03-07T16:26:47.949Z,4.42
2023-03-07T16:29:16.883Z,4.53
2023-03-07T16:31:43.403Z,4.45
2023-03-07T16:34:18.569Z,4.53
2023-03-07T16:36:47.204Z,4.50
2023-03-07T16:39:14.410Z,4.47
2023-03-07T16:41:49.576Z,4.53
2023-03-07T16:44:18.987Z,4.54
2023-03-07T16:46:51.446Z,4.45
2023-03-07T16:49:18.494Z,4.42
2023-03-07T16:51:48.958Z,4.38
2023-03-07T16:54:20.613Z,4.36
2023-03-07T16:56:53.597Z,4.28
2023-03-07T16:59:22.569Z,4.30
2023-03-07T17:01:51.775Z,4.26
2023-03-07T17:04:18.333Z,4.25
2023-03-07T17:06:47.309Z,4.27
2023-03-07T17:09:15.277Z,4.28
2023-03-07T17:11:51.685Z,4.28
2023-03-07T17:14:19.260Z,4.24
2023-03-07T17:16:48.835Z,4.22
2023-03-07T17:19:30.229Z,4.28
2023-03-07T17:22:01.070Z,4.35
2023-03-07T17:24:29.095Z,4.31
2023-03-07T17:26:58.323Z,4.37
2023-03-07T17:29:34.981Z,4.31
2023-03-07T17:32:01.507Z,4.29
2023-03-07T17:34:31.230Z,4.31
2023-03-07T17:36:58.655Z,4.26
2023-03-07T17:39:25.315Z,4.26
2023-03-07T17:41:51.805Z,4.20
2023-03-07T17:44:18.264Z,4.30
2023-03-07T17:46:44.802Z,4.30
2023-03-07T17:49:11.400Z,4.32
2023-03-07T17:51:37.887Z,4.23
2023-03-07T17:54:06.652Z,4.28
2023-03-07T17:56:33.104Z,4.28
2023-03-07T17:59:01.508Z,4.14
2023-03-07T18:01:32.673Z,4.11
2023-03-07T18:03:59.972Z,4.08
2023-03-07T18:06:26.912Z,4.12
2023-03-07T18:08:53.584Z,4.05
2023-03-07T18:11:20.199Z,4.16
2023-03-07T18:13:46.818Z,4.09
2023-03-07T18:16:13.409Z,3.92
2023-03-07T18:18:50.569Z,3.90
2023-03-07T18:21:24.580Z,3.96
2023-03-07T18:23:52.127Z,3.91
2023-03-07T18:26:19.966Z,3.91
2023-03-07T18:28:48.391Z,3.98
2023-03-07T18:31:19.933Z,4.03
2023-03-07T18:33:50.872Z,3.98
2023-03-07T18:36:18.176Z,4.02
2023-03-07T18:38:44.926Z,3.96
2023-03-07T18:41:14.893Z,3.93
2023-03-07T18:43:41.944Z,4.01
2023-03-07T18:46:11.268Z,3.96
2023-03-07T18:48:38.038Z,3.90
2023-03-07T18:51:13.377Z,3.96
2023-03-07T18:53:40.268Z,3.94
2023-03-07T18:56:09.570Z,3.92
2023-03-07T18:58:36.886Z,3.97
2023-03-07T19:01:10.568Z,4.01
2023-03-07T19:03:37.061Z,4.02
2023-03-07T19:06:03.779Z,4.01
2023-03-07T19:08:30.382Z,4.04
2023-03-07T19:10:57.665Z,4.07
2023-03-07T19:13:24.114Z,4.06
2023-03-07T19:15:50.550Z,4.06
2023-03-07T19:18:16.958Z,4.08
2023-03-07T19:20:43.446Z,4.11
2023-03-07T19:23:09.975Z,4.03
2023-03-07T19:25:36.732Z,4.08
2023-03-07T19:28:03.331Z,4.13
2023-03-07T19:30:29.854Z,4.14
2023-03-07T19:32:58.767Z,4.15
2023-03-07T19:35:25.211Z,4.13
2023-03-07T19:37:51.637Z,4.15
2023-03-07T19:40:18.291Z,4.16
2023-03-07T19:42:44.736Z,4.11
2023-03-07T19:45:11.339Z,4.16
2023-03-07T19:47:37.882Z,4.09
2023-03-07T19:50:04.632Z,4.12
2023-03-07T19:52:31.119Z,4.04
2023-03-07T19:54:57.597Z,4.15
2023-03-07T19:57:24.098Z,4.12
2023-03-07T19:59:53.789Z,4.07
2023-03-07T20:02:20.683Z,3.96
2023-03-07T20:04:47.172Z,3.98
2023-03-07T20:07:13.674Z,4.02
2023-03-07T20:09:40.149Z,4.02
2023-03-07T20:12:08.989Z,4.01
2023-03-07T20:14:42.422Z,4.06
2023-03-07T20:17:10.781Z,3.91
2023-03-07T20:19:38.352Z,3.93
2023-03-07T20:22:05.665Z,3.96
2023-03-07T20:24:33.172Z,3.92
2023-03-07T20:27:00.345Z,3.94
2023-03-07T20:29:26.876Z,3.96
2023-03-07T20:31:53.547Z,3.86
2023-03-07T20:34:20.548Z,3.92
2023-03-07T20:36:47.255Z,3.88
2023-03-07T20:39:14.567Z,3.89
2023-03-07T20:41:42.765Z,3.87
2023-03-07T20:44:12.889Z,3.88
2023-03-07T20:46:39.871Z,3.91
2023-03-07T20:49:06.438Z,3.89
2023-03-07T20:51:35.421Z,3.89
2023-03-07T20:54:05.036Z,3.88
2023-03-07T20:56:33.181Z,3.90
2023-03-07T20:59:00.187Z,3.94
2023-03-07T21:01:29.585Z,3.95
2023-03-07T21:03:59.127Z,3.95
2023-03-07T21:06:25.622Z,3.93
2023-03-07T21:08:52.332Z,3.86
2023-03-07T21:11:20.598Z,3.95
2023-03-07T21:13:49.167Z,3.85
2023-03-07T21:16:18.810Z,3.87
2023-03-07T21:18:45.733Z,3.87
2023-03-07T21:21:15.149Z,3.82
2023-03-07T21:23:41.748Z,3.84
2023-03-07T21:26:22.400Z,3.84
2023-03-07T21:28:53.059Z,3.89
2023-03-07T21:31:25.603Z,3.83
2023-03-07T21:33:57.559Z,3.93
2023-03-07T21:36:27.059Z,3.84
2023-03-07T21:38:54.368Z,3.90
2023-03-07T21:41:27.240Z,3.78
2023-03-07T21:43:58.043Z,3.80
2023-03-07T21:46:25.924Z,3.77
2023-03-07T21:48:52.857Z,3.78
2023-03-07T21:51:20.364Z,3.74
2023-03-07T21:53:47.101Z,3.79
2023-03-07T21:56:18.703Z,3.76
2023-03-07T21:58:49.708Z,3.67
2023-03-07T22:01:21.963Z,3.68
2023-03-07T22:03:51.492Z,3.62
2023-03-07T22:06:18.108Z,3.64
2023-03-07T22:08:44.756Z,3.63
2023-03-07T22:11:12.855Z,3.68
2023-03-07T22:13:41.359Z,3.63
2023-03-07T22:16:12.368Z,3.72
2023-03-07T22:18:39.012Z,3.69
2023-03-07T22:21:07.865Z,3.61
2023-03-07T22:23:35.253Z,3.56
2023-03-07T22:26:07.228Z,3.41
2023-03-07T22:28:34.757Z,3.37
2023-03-07T22:31:06.819Z,3.28
2023-03-07T22:33:33.617Z,3.19
2023-03-07T22:36:02.282Z,3.32
2023-03-07T22:38:29.152Z,3.29
2023-03-07T22:41:04.230Z,3.38
2023-03-07T22:43:32.645Z,3.43
2023-03-07T22:45:59.470Z,3.47
2023-03-07T22:48:26.808Z,3.46
2023-03-07T22:50:54.173Z,3.39
2023-03-07T22:53:20.931Z,3.47
2023-03-07T22:55:47.433Z,3.33
2023-03-07T22:58:14.218Z,3.39
2023-03-07T23:00:42.594Z,3.33
2023-03-07T23:03:09.236Z,3.43
2023-03-07T23:05:36.367Z,3.37
2023-03-07T23:08:03.876Z,3.31
2023-03-07T23:10:31.150Z,3.35
2023-03-07T23:12:57.781Z,3.28
2023-03-07T23:15:24.698Z,3.26
2023-03-07T23:17:51.301Z,3.27
2023-03-07T23:20:18.933Z,3.22
2023-03-07T23:22:46.153Z,3.22
2023-03-07T23:25:13.608Z,3.28
2023-03-07T23:27:40.161Z,3.27
2023-03-07T23:30:07.201Z,3.35
2023-03-07T23:32:33.707Z,3.48
2023-03-07T23:35:00.471Z,3.31
2023-03-07T23:37:26.955Z,3.31
2023-03-07T23:39:53.475Z,3.35
2023-03-07T23:42:19.981Z,3.26
2023-03-07T23:44:49.831Z,3.33
2023-03-07T23:47:16.845Z,3.40
2023-03-07T23:49:43.335Z,3.40
2023-03-07T23:52:09.801Z,3.38
2023-03-07T23:54:36.277Z,3.39
2023-03-07T23:57:02.886Z,3.35
2023-03-07T23:59:29.342Z,3.44
